Time;durP1;ratioP1;P1;durP2;ratioP2;P2;SDS_P1;SDS_P2;PMS_P1;PMS_P2;Temp;Humidity;BMP_temperature;BMP_pressure;BME280_temperature;BME280_humidity;BME280_pressure;Samples;Min_cycle;Max_cycle;Signal;HPM_P1;HPM_P2
2022/01/31 00:01:34;;;;;;;17.27;5.85;;;;;;;;;;5055676;28;20476;-74
2022/01/31 00:04:19;;;;;;;13.32;4.80;;;;;;;;;;5055536;28;20024;-74
2022/01/31 00:07:05;;;;;;;13.55;5.00;;;;;;;;;;5054470;28;20104;-74
2022/01/31 00:09:51;;;;;;;14.57;4.43;;;;;;;;;;5055528;28;20055;-74
2022/01/31 00:12:50;;;;;;;18.35;4.53;;;;;;;;;;5055303;28;20025;-63
2022/01/31 00:15:40;;;;;;;13.13;4.50;;;;;;;;;;5056487;28;20021;-74
2022/01/31 00:18:25;;;;;;;12.00;4.25;;;;;;;;;;5055812;28;20102;-74
2022/01/31 00:21:11;;;;;;;18.45;6.20;;;;;;;;;;5055325;28;20033;-74
2022/01/31 00:23:56;;;;;;;14.43;4.93;;;;;;;;;;5054858;28;20056;-74
2022/01/31 00:26:42;;;;;;;14.43;4.95;;;;;;;;;;5055282;28;20090;-73
2022/01/31 00:29:27;;;;;;;18.90;5.10;;;;;;;;;;5054859;28;20104;-73
2022/01/31 00:32:13;;;;;;;15.75;4.80;;;;;;;;;;5054961;28;20033;-68
2022/01/31 00:34:59;;;;;;;16.80;5.03;;;;;;;;;;5054466;28;20029;-73
2022/01/31 00:37:44;;;;;;;19.45;5.90;;;;;;;;;;5054164;28;20013;-73
2022/01/31 00:40:30;;;;;;;16.88;5.03;;;;;;;;;;5055830;28;20091;-73
2022/01/31 00:43:18;;;;;;;16.55;5.75;;;;;;;;;;5054330;28;20031;-73
2022/01/31 00:46:11;;;;;;;18.45;4.90;;;;;;;;;;5053947;28;20026;-74
2022/01/31 00:48:56;;;;;;;13.93;4.55;;;;;;;;;;5053678;28;20017;-68
2022/01/31 00:51:42;;;;;;;13.27;4.32;;;;;;;;;;5054896;28;20530;-63
2022/01/31 00:54:28;;;;;;;10.25;4.20;;;;;;;;;;5054679;28;20043;-63
2022/01/31 00:57:13;;;;;;;11.02;5.35;;;;;;;;;;5053976;28;20020;-63
2022/01/31 00:59:59;;;;;;;16.50;4.50;;;;;;;;;;5053665;28;20033;-63
2022/01/31 01:02:45;;;;;;;17.55;5.63;;;;;;;;;;5054505;28;20063;-64
2022/01/31 01:05:31;;;;;;;13.80;4.45;;;;;;;;;;5053945;28;20039;-64
2022/01/31 01:08:16;;;;;;;14.43;6.00;;;;;;;;;;5054111;28;20074;-74
2022/01/31 01:11:02;;;;;;;14.20;5.22;;;;;;;;;;5039328;28;20354;-63
2022/01/31 01:13:47;;;;;;;21.08;4.82;;;;;;;;;;5053703;28;20029;-64
2022/01/31 01:16:33;;;;;;;17.67;4.75;;;;;;;;;;5054124;28;20100;-64
2022/01/31 01:19:18;;;;;;;16.80;4.53;;;;;;;;;;5039160;28;20072;-63
2022/01/31 01:22:04;;;;;;;16.52;4.90;;;;;;;;;;5053972;28;20024;-62
2022/01/31 01:24:50;;;;;;;13.65;3.78;;;;;;;;;;5038726;28;20049;-63
2022/01/31 01:27:35;;;;;;;13.80;4.20;;;;;;;;;;5053399;28;20025;-63
2022/01/31 01:30:21;;;;;;;15.18;4.63;;;;;;;;;;5053757;28;20033;-62
2022/01/31 01:33:17;;;;;;;14.02;4.85;;;;;;;;;;5039787;28;20025;-63
2022/01/31 01:36:04;;;;;;;13.95;4.25;;;;;;;;;;5054645;28;20033;-62
2022/01/31 01:38:50;;;;;;;13.45;5.00;;;;;;;;;;5053084;28;20013;-62
2022/01/31 01:41:35;;;;;;;13.32;5.35;;;;;;;;;;5053702;28;20384;-63
2022/01/31 01:44:39;;;;;;;19.20;5.22;;;;;;;;;;5053830;28;20483;-66
2022/01/31 01:47:25;;;;;;;14.25;4.95;;;;;;;;;;5052405;28;20048;-61
2022/01/31 01:50:11;;;;;;;19.65;6.40;;;;;;;;;;5054268;28;20024;-61
2022/01/31 01:52:56;;;;;;;15.77;4.90;;;;;;;;;;5053237;28;20103;-61
2022/01/31 01:55:45;;;;;;;18.23;5.63;;;;;;;;;;5053370;28;20017;-62
2022/01/31 01:58:38;;;;;;;17.23;4.43;;;;;;;;;;5052403;28;20067;-61
2022/01/31 02:01:24;;;;;;;11.52;5.03;;;;;;;;;;5052954;28;20396;-61
2022/01/31 02:04:09;;;;;;;14.35;4.53;;;;;;;;;;5053266;28;20016;-63
2022/01/31 02:06:55;;;;;;;18.40;5.40;;;;;;;;;;5038614;28;20388;-62
2022/01/31 02:09:45;;;;;;;18.00;5.28;;;;;;;;;;5053142;28;20088;-62
2022/01/31 02:12:38;;;;;;;20.38;5.13;;;;;;;;;;5052115;28;20024;-62
2022/01/31 02:15:25;;;;;;;11.27;4.22;;;;;;;;;;5052174;28;20464;-63
2022/01/31 02:18:11;;;;;;;16.67;5.18;;;;;;;;;;5052329;28;20029;-63
2022/01/31 02:20:58;;;;;;;19.90;4.90;;;;;;;;;;5052242;28;20032;-68
2022/01/31 02:23:44;;;;;;;13.90;4.63;;;;;;;;;;5052308;28;20017;-61
2022/01/31 02:26:29;;;;;;;10.57;4.55;;;;;;;;;;5052870;28;20048;-61
2022/01/31 02:29:15;;;;;;;12.60;4.40;;;;;;;;;;5052793;28;20078;-61
2022/01/31 02:32:00;;;;;;;15.00;4.53;;;;;;;;;;5052518;28;20021;-61
2022/01/31 02:34:46;;;;;;;14.23;4.63;;;;;;;;;;5052368;28;20021;-61
2022/01/31 02:37:32;;;;;;;15.15;4.70;;;;;;;;;;5052101;28;20073;-62
2022/01/31 02:40:18;;;;;;;15.40;4.25;;;;;;;;;;5053081;28;20471;-70
2022/01/31 02:43:03;;;;;;;17.25;5.38;;;;;;;;;;5039144;28;20070;-64
2022/01/31 02:45:49;;;;;;;19.13;5.93;;;;;;;;;;5052210;28;20029;-63
2022/01/31 02:48:36;;;;;;;8.85;4.03;;;;;;;;;;5051598;28;20602;-64
2022/01/31 02:51:24;;;;;;;14.57;5.78;;;;;;;;;;5052043;28;20082;-63
2022/01/31 02:54:10;;;;;;;14.60;4.40;;;;;;;;;;5052055;28;20063;-63
2022/01/31 02:56:55;;;;;;;21.58;6.65;;;;;;;;;;5052169;28;20021;-64
2022/01/31 02:59:41;;;;;;;15.32;4.95;;;;;;;;;;5052403;28;20071;-69
2022/01/31 03:02:26;;;;;;;13.82;4.47;;;;;;;;;;5052309;28;20029;-64
2022/01/31 03:05:12;;;;;;;18.90;5.82;;;;;;;;;;5052170;28;20060;-63
2022/01/31 03:07:58;;;;;;;13.48;4.80;;;;;;;;;;5051460;28;20472;-63
2022/01/31 03:10:43;;;;;;;17.88;4.60;;;;;;;;;;5051646;28;20029;-64
2022/01/31 03:13:29;;;;;;;16.23;4.80;;;;;;;;;;5051582;28;20028;-63
2022/01/31 03:16:14;;;;;;;20.08;5.13;;;;;;;;;;5052344;28;20376;-70
2022/01/31 03:19:00;;;;;;;13.73;5.30;;;;;;;;;;5051994;28;20037;-64
2022/01/31 03:21:46;;;;;;;17.20;5.07;;;;;;;;;;5051116;28;20021;-64
2022/01/31 03:24:31;;;;;;;15.80;4.15;;;;;;;;;;5051206;28;20074;-65
2022/01/31 03:27:17;;;;;;;17.02;5.22;;;;;;;;;;5051774;28;20021;-64
2022/01/31 03:30:06;;;;;;;13.90;4.80;;;;;;;;;;5051879;28;20122;-63
2022/01/31 03:32:52;;;;;;;16.00;4.30;;;;;;;;;;5051369;28;20025;-64
2022/01/31 03:35:37;;;;;;;16.70;5.18;;;;;;;;;;5051755;28;20028;-64
2022/01/31 03:38:23;;;;;;;15.88;4.82;;;;;;;;;;5050954;28;20025;-69
2022/01/31 03:41:09;;;;;;;12.23;5.38;;;;;;;;;;5051921;28;20028;-69
2022/01/31 03:43:54;;;;;;;14.60;4.18;;;;;;;;;;5051408;28;20028;-69
2022/01/31 03:46:40;;;;;;;11.13;4.30;;;;;;;;;;5052948;28;20025;-70
2022/01/31 03:49:26;;;;;;;15.13;4.93;;;;;;;;;;5052012;28;20430;-69
2022/01/31 03:52:11;;;;;;;14.35;4.50;;;;;;;;;;5052099;28;20040;-64
2022/01/31 03:54:57;;;;;;;10.65;4.47;;;;;;;;;;5051623;28;20025;-66
2022/01/31 03:57:42;;;;;;;15.35;4.78;;;;;;;;;;5051802;28;20028;-65
2022/01/31 04:00:28;;;;;;;12.57;4.15;;;;;;;;;;5051342;28;20394;-63
2022/01/31 04:03:14;;;;;;;16.95;5.05;;;;;;;;;;5051274;28;20506;-63
2022/01/31 04:05:59;;;;;;;14.85;4.80;;;;;;;;;;5051062;28;20021;-63
2022/01/31 04:08:45;;;;;;;13.85;4.75;;;;;;;;;;5052177;28;20490;-63
2022/01/31 04:11:30;;;;;;;11.52;4.07;;;;;;;;;;5055781;28;20013;-68
2022/01/31 04:14:16;;;;;;;13.30;4.07;;;;;;;;;;5056047;28;20104;-63
2022/01/31 04:17:02;;;;;;;15.18;5.10;;;;;;;;;;5055299;28;20021;-62
2022/01/31 04:19:48;;;;;;;12.93;4.82;;;;;;;;;;5055236;28;20475;-63
2022/01/31 04:22:37;;;;;;;15.57;5.43;;;;;;;;;;5054824;28;20024;-63
2022/01/31 04:25:43;;;;;;;11.68;4.00;;;;;;;;;;5055886;28;20052;-63
2022/01/31 04:28:39;;;;;;;15.00;5.45;;;;;;;;;;5054605;28;20032;-62
2022/01/31 04:31:38;;;;;;;14.38;4.55;;;;;;;;;;5054076;28;20091;-61
2022/01/31 04:34:24;;;;;;;17.70;4.78;;;;;;;;;;5056222;28;20029;-73
2022/01/31 04:37:10;;;;;;;15.80;5.10;;;;;;;;;;5054376;28;20036;-74
2022/01/31 04:39:56;;;;;;;12.77;4.28;;;;;;;;;;5053589;28;20040;-74
2022/01/31 04:42:43;;;;;;;12.25;4.45;;;;;;;;;;5055017;28;20476;-74
2022/01/31 04:45:29;;;;;;;14.77;4.60;;;;;;;;;;5054135;28;20075;-73
2022/01/31 04:48:19;;;;;;;14.40;4.43;;;;;;;;;;5054381;28;20021;-65
2022/01/31 04:51:04;;;;;;;16.08;4.20;;;;;;;;;;5054160;28;20021;-63
2022/01/31 04:53:50;;;;;;;11.98;3.95;;;;;;;;;;5054448;28;20021;-63
2022/01/31 04:56:36;;;;;;;14.65;3.90;;;;;;;;;;5054412;28;20032;-63
2022/01/31 04:59:22;;;;;;;10.95;3.80;;;;;;;;;;5053772;28;20112;-62
2022/01/31 05:02:07;;;;;;;11.65;4.22;;;;;;;;;;5054831;28;20025;-62
2022/01/31 05:04:53;;;;;;;11.25;3.70;;;;;;;;;;5054346;28;20025;-62
2022/01/31 05:07:39;;;;;;;16.52;3.75;;;;;;;;;;5053999;28;20078;-67
2022/01/31 05:10:24;;;;;;;15.35;4.70;;;;;;;;;;5040694;28;20043;-66
2022/01/31 05:13:11;;;;;;;11.95;4.13;;;;;;;;;;5054110;28;20748;-65
2022/01/31 05:15:57;;;;;;;14.88;4.15;;;;;;;;;;5053294;28;20033;-65
2022/01/31 05:18:44;;;;;;;13.65;4.35;;;;;;;;;;5053981;28;20028;-66
2022/01/31 05:21:30;;;;;;;12.93;5.13;;;;;;;;;;5053638;28;20455;-66
2022/01/31 05:24:15;;;;;;;12.48;4.40;;;;;;;;;;5055025;28;20047;-68
2022/01/31 05:27:01;;;;;;;14.68;5.60;;;;;;;;;;5053927;28;20114;-62
2022/01/31 05:29:47;;;;;;;15.32;4.18;;;;;;;;;;5054852;28;20021;-63
2022/01/31 05:32:32;;;;;;;15.50;4.28;;;;;;;;;;5039002;28;20139;-64
2022/01/31 05:35:18;;;;;;;9.93;4.07;;;;;;;;;;5038941;28;20032;-64
2022/01/31 05:38:03;;;;;;;16.25;4.97;;;;;;;;;;5053855;28;20059;-62
2022/01/31 05:40:49;;;;;;;9.98;3.67;;;;;;;;;;5054693;28;20119;-63
2022/01/31 05:43:35;;;;;;;11.35;3.90;;;;;;;;;;5053527;28;20017;-67
2022/01/31 05:46:20;;;;;;;6.97;3.05;;;;;;;;;;5054530;28;20028;-63
2022/01/31 05:49:06;;;;;;;15.63;3.50;;;;;;;;;;5053499;28;20029;-63
2022/01/31 05:51:54;;;;;;;13.90;3.97;;;;;;;;;;5053938;28;20521;-64
2022/01/31 05:54:39;;;;;;;10.75;3.58;;;;;;;;;;5052941;28;20579;-63
2022/01/31 05:57:25;;;;;;;16.00;3.92;;;;;;;;;;5052627;28;20131;-64
2022/01/31 06:00:11;;;;;;;11.18;3.55;;;;;;;;;;5052972;28;20068;-64
2022/01/31 06:02:58;;;;;;;13.15;3.80;;;;;;;;;;5054435;28;20025;-70
2022/01/31 06:05:44;;;;;;;15.68;3.53;;;;;;;;;;5052449;28;20025;-70
2022/01/31 06:08:30;;;;;;;12.38;4.40;;;;;;;;;;5038357;28;20021;-69
2022/01/31 06:11:15;;;;;;;13.13;3.80;;;;;;;;;;5052653;28;20127;-71
2022/01/31 06:14:02;;;;;;;11.05;3.15;;;;;;;;;;5052935;28;20419;-69
2022/01/31 06:16:48;;;;;;;13.32;3.70;;;;;;;;;;5053468;28;20059;-69
2022/01/31 06:19:33;;;;;;;9.13;3.33;;;;;;;;;;5052662;28;20037;-65
2022/01/31 06:22:19;;;;;;;21.83;4.55;;;;;;;;;;5052815;28;20151;-73
2022/01/31 06:25:05;;;;;;;11.55;3.33;;;;;;;;;;5052644;28;20436;-70
2022/01/31 06:27:51;;;;;;;15.10;4.28;;;;;;;;;;5052305;28;20455;-70
2022/01/31 06:30:37;;;;;;;12.63;4.10;;;;;;;;;;5052058;28;20025;-71
2022/01/31 06:33:22;;;;;;;13.45;4.32;;;;;;;;;;5052964;28;20017;-71
2022/01/31 06:36:08;;;;;;;15.05;4.72;;;;;;;;;;5052757;28;20021;-70
2022/01/31 06:38:54;;;;;;;12.02;3.13;;;;;;;;;;5051971;28;20021;-63
2022/01/31 06:41:39;;;;;;;19.05;3.58;;;;;;;;;;5052828;28;20056;-65
2022/01/31 06:44:25;;;;;;;13.77;4.50;;;;;;;;;;5052595;28;20457;-66
2022/01/31 06:47:10;;;;;;;15.95;3.83;;;;;;;;;;5052408;28;20032;-64
2022/01/31 06:49:56;;;;;;;10.18;3.50;;;;;;;;;;5052705;28;20119;-66
2022/01/31 06:52:42;;;;;;;11.40;3.88;;;;;;;;;;5051873;28;20498;-69
2022/01/31 06:55:29;;;;;;;12.60;4.05;;;;;;;;;;5052166;28;20013;-65
2022/01/31 06:58:15;;;;;;;16.77;4.20;;;;;;;;;;5051455;28;20440;-68
2022/01/31 07:01:01;;;;;;;14.45;4.07;;;;;;;;;;5052747;28;20526;-65
2022/01/31 07:03:46;;;;;;;12.93;4.10;;;;;;;;;;5051959;28;20039;-66
2022/01/31 07:06:32;;;;;;;11.80;4.85;;;;;;;;;;5052096;28;20517;-66
2022/01/31 07:09:17;;;;;;;14.60;5.35;;;;;;;;;;5052720;28;20100;-66
2022/01/31 07:12:05;;;;;;;10.68;4.32;;;;;;;;;;5052245;28;20059;-66
2022/01/31 07:14:51;;;;;;;12.90;3.95;;;;;;;;;;5051718;28;20479;-66
2022/01/31 07:17:37;;;;;;;11.45;3.72;;;;;;;;;;5052250;28;20032;-68
2022/01/31 07:20:33;;;;;;;14.05;4.22;;;;;;;;;;5051937;28;20039;-69
2022/01/31 07:23:24;;;;;;;15.02;4.28;;;;;;;;;;5051318;28;20029;-69
2022/01/31 07:26:09;;;;;;;14.82;5.60;;;;;;;;;;5050970;28;20049;-70
2022/01/31 07:28:55;;;;;;;9.50;3.42;;;;;;;;;;5051895;28;20051;-69
2022/01/31 07:31:41;;;;;;;8.10;3.65;;;;;;;;;;5037259;28;20020;-68
2022/01/31 07:34:26;;;;;;;9.43;3.50;;;;;;;;;;5038625;28;20530;-66
2022/01/31 07:37:12;;;;;;;12.38;3.15;;;;;;;;;;5038910;28;20143;-67
2022/01/31 07:39:58;;;;;;;8.40;2.67;;;;;;;;;;5051296;28;20494;-67
2022/01/31 07:42:44;;;;;;;10.07;3.22;;;;;;;;;;5053177;28;20130;-67
2022/01/31 07:45:30;;;;;;;6.22;2.90;;;;;;;;;;5054026;28;20032;-68
2022/01/31 07:48:15;;;;;;;8.27;3.05;;;;;;;;;;5056030;28;20020;-66
2022/01/31 07:51:01;;;;;;;7.22;2.95;;;;;;;;;;5055784;28;20028;-66
2022/01/31 07:53:46;;;;;;;6.80;3.15;;;;;;;;;;5056066;28;20109;-66
2022/01/31 07:56:32;;;;;;;9.23;3.22;;;;;;;;;;5055777;28;20094;-66
2022/01/31 07:59:17;;;;;;;5.53;2.63;;;;;;;;;;5055793;28;20494;-65
2022/01/31 08:02:03;;;;;;;10.20;2.80;;;;;;;;;;5055659;28;20507;-66
2022/01/31 08:04:49;;;;;;;6.97;2.72;;;;;;;;;;5041732;28;20151;-64
2022/01/31 08:07:35;;;;;;;7.80;2.42;;;;;;;;;;5055994;28;20060;-65
2022/01/31 08:10:20;;;;;;;6.18;2.25;;;;;;;;;;5054871;28;20025;-71
2022/01/31 08:13:08;;;;;;;6.35;2.17;;;;;;;;;;5055243;28;20104;-66
2022/01/31 08:16:09;;;;;;;5.35;2.72;;;;;;;;;;5055064;28;20107;-73
2022/01/31 08:18:55;;;;;;;5.28;2.10;;;;;;;;;;5054783;28;20028;-74
2022/01/31 08:21:40;;;;;;;2.75;1.40;;;;;;;;;;5055247;28;20107;-70
2022/01/31 08:24:26;;;;;;;3.03;1.67;;;;;;;;;;5041175;28;20472;-71
2022/01/31 08:27:11;;;;;;;6.10;2.28;;;;;;;;;;5042193;28;20039;-71
2022/01/31 08:30:07;;;;;;;8.35;2.85;;;;;;;;;;5055556;28;20435;-73
2022/01/31 08:33:01;;;;;;;4.45;1.70;;;;;;;;;;5054688;28;20021;-70
2022/01/31 08:35:50;;;;;;;4.38;1.73;;;;;;;;;;5054664;28;20107;-70
2022/01/31 08:38:36;;;;;;;;;;;;;;;;;;5054867;28;20024;-70
2022/01/31 08:41:23;;;;;;;3.50;1.35;;;;;;;;;;5041595;28;19920;-69
2022/01/31 08:44:13;;;;;;;2.95;1.10;;;;;;;;;;5041090;28;20021;-70
2022/01/31 08:46:58;;;;;;;3.25;1.20;;;;;;;;;;5056683;28;20055;-68
2022/01/31 08:49:45;;;;;;;2.55;1.48;;;;;;;;;;5058745;28;20036;-72
2022/01/31 08:52:30;;;;;;;1.83;1.30;;;;;;;;;;5056191;28;20316;-73
2022/01/31 08:55:17;;;;;;;3.83;1.35;;;;;;;;;;5057409;28;20098;-73
2022/01/31 08:58:05;;;;;;;5.13;1.67;;;;;;;;;;5056559;28;20052;-72
2022/01/31 09:00:59;;;;;;;2.55;1.40;;;;;;;;;;5058183;28;20044;-74
2022/01/31 09:06:36;;;;;;;3.70;1.42;;;;;;;;;;5057541;28;20036;-64
2022/01/31 09:09:23;;;;;;;1.95;0.93;;;;;;;;;;5040498;28;20063;-73
2022/01/31 09:12:10;;;;;;;4.10;1.33;;;;;;;;;;5054933;28;20602;-71
2022/01/31 09:14:56;;;;;;;4.68;1.40;;;;;;;;;;5054311;28;20475;-72
2022/01/31 09:17:42;;;;;;;3.90;1.05;;;;;;;;;;5054872;28;20029;-71
2022/01/31 09:20:27;;;;;;;2.17;1.35;;;;;;;;;;5056502;28;20101;-71
2022/01/31 09:23:13;;;;;;;4.03;1.23;;;;;;;;;;5056118;28;20071;-73
2022/01/31 09:25:59;;;;;;;6.22;1.73;;;;;;;;;;5055346;28;20053;-67
2022/01/31 09:28:44;;;;;;;3.35;1.33;;;;;;;;;;5055873;28;20021;-68
2022/01/31 09:31:30;;;;;;;3.60;1.10;;;;;;;;;;5055897;28;20488;-67
2022/01/31 09:34:16;;;;;;;3.75;1.48;;;;;;;;;;5056115;28;20515;-67
2022/01/31 09:37:01;;;;;;;2.08;1.00;;;;;;;;;;5042331;28;20051;-67
2022/01/31 09:39:50;;;;;;;5.18;1.40;;;;;;;;;;5041149;28;20533;-67
2022/01/31 09:43:00;;;;;;;3.97;1.57;;;;;;;;;;5053917;28;20040;-67
2022/01/31 09:48:41;;;;;;;3.03;1.23;;;;;;;;;;5057186;28;20516;-67
2022/01/31 09:51:26;;;;;;;5.43;1.40;;;;;;;;;;5056458;28;20349;-67
2022/01/31 09:54:13;;;;;;;4.30;1.60;;;;;;;;;;5057001;28;20017;-68
2022/01/31 09:56:58;;;;;;;3.53;1.80;;;;;;;;;;5053122;28;20025;-72
2022/01/31 09:59:44;;;;;;;4.25;1.50;;;;;;;;;;5053172;28;20116;-70
2022/01/31 10:02:29;;;;;;;2.83;1.45;;;;;;;;;;5053181;28;20028;-74
2022/01/31 10:05:26;;;;;;;5.20;1.55;;;;;;;;;;5053108;28;20025;-72
2022/01/31 10:08:13;;;;;;;3.45;1.58;;;;;;;;;;5051918;28;20025;-73
2022/01/31 10:11:02;;;;;;;6.68;1.90;;;;;;;;;;5037933;28;20025;-74
2022/01/31 10:16:51;;;;;;;7.22;1.88;;;;;;;;;;5054282;28;20024;-73
2022/01/31 10:19:44;;;;;;;3.97;1.40;;;;;;;;;;5053139;28;20033;-72
2022/01/31 10:22:30;;;;;;;3.88;1.63;;;;;;;;;;5052445;28;20411;-70
2022/01/31 10:25:17;;;;;;;4.53;1.63;;;;;;;;;;5034743;28;20455;-71
2022/01/31 10:28:09;;;;;;;6.57;1.98;;;;;;;;;;5034479;28;20049;-71
2022/01/31 10:30:55;;;;;;;3.47;1.65;;;;;;;;;;5036560;28;20029;-72
2022/01/31 10:33:58;;;;;;;3.20;1.48;;;;;;;;;;5034093;28;20021;-72
2022/01/31 10:36:43;;;;;;;6.80;1.70;;;;;;;;;;5034152;28;20017;-73
2022/01/31 10:52:20;;;;;;;3.53;1.45;;;;;;;;;;5032851;28;20049;-69
2022/01/31 10:54:50;;;;;;;4.75;1.98;;;;;;;;;;5032611;28;20366;-67
2022/01/31 10:57:36;;;;;;;3.97;1.85;;;;;;;;;;5032051;28;20035;-66
2022/01/31 11:00:21;;;;;;;4.63;1.77;;;;;;;;;;5032882;28;20022;-80
2022/01/31 11:03:26;;;;;;;6.43;1.70;;;;;;;;;;5031404;28;20057;-77
2022/01/31 11:06:12;;;;;;;3.42;1.63;;;;;;;;;;5031953;28;20026;-77
2022/01/31 11:09:04;;;;;;;5.05;1.63;;;;;;;;;;5031507;28;20013;-77
2022/01/31 11:11:50;;;;;;;4.05;1.60;;;;;;;;;;5038807;28;20029;-69
2022/01/31 11:14:37;;;;;;;4.53;1.85;;;;;;;;;;5032018;28;20059;-69
2022/01/31 11:17:24;;;;;;;6.60;2.50;;;;;;;;;;5032805;28;20376;-66
2022/01/31 11:20:10;;;;;;;8.68;2.47;;;;;;;;;;5031382;28;20025;-66
2022/01/31 11:22:58;;;;;;;9.90;2.42;;;;;;;;;;5031357;28;20044;-66
2022/01/31 11:25:47;;;;;;;3.53;1.70;;;;;;;;;;5043494;28;20041;-66
2022/01/31 11:28:33;;;;;;;5.65;1.65;;;;;;;;;;5052707;28;20443;-68
2022/01/31 11:31:19;;;;;;;4.10;1.48;;;;;;;;;;5053127;28;20036;-66
2022/01/31 11:34:06;;;;;;;5.22;1.80;;;;;;;;;;5052811;28;20029;-70
2022/01/31 11:36:52;;;;;;;7.95;1.65;;;;;;;;;;5036444;28;20107;-70
2022/01/31 11:39:39;;;;;;;6.00;1.67;;;;;;;;;;5037317;28;20431;-70
2022/01/31 11:42:25;;;;;;;6.03;1.83;;;;;;;;;;5052995;28;20102;-69
2022/01/31 11:45:16;;;;;;;6.18;1.75;;;;;;;;;;5055679;28;20483;-69
2022/01/31 11:48:03;;;;;;;6.15;1.95;;;;;;;;;;5037841;28;20021;-70
2022/01/31 11:50:52;;;;;;;6.80;2.78;;;;;;;;;;5053004;28;20023;-69
2022/01/31 11:53:39;;;;;;;4.07;1.88;;;;;;;;;;5037385;28;20029;-69
2022/01/31 11:56:25;;;;;;;6.55;2.22;;;;;;;;;;5052796;28;20053;-72
2022/01/31 11:59:11;;;;;;;4.60;1.45;;;;;;;;;;5051321;28;20024;-72
2022/01/31 12:01:58;;;;;;;5.60;2.35;;;;;;;;;;5051335;28;20035;-70
2022/01/31 12:04:44;;;;;;;5.72;1.52;;;;;;;;;;5051081;28;20025;-70
2022/01/31 12:07:38;;;;;;;4.93;2.00;;;;;;;;;;5051283;28;20025;-71
2022/01/31 12:10:33;;;;;;;5.90;1.40;;;;;;;;;;5051371;28;20025;-71
2022/01/31 12:13:36;;;;;;;3.25;1.20;;;;;;;;;;5052075;28;20424;-70
2022/01/31 12:16:31;;;;;;;4.20;1.20;;;;;;;;;;5058613;28;20479;-69
2022/01/31 12:22:35;;;;;;;4.50;1.40;;;;;;;;;;5051213;28;20029;-69
2022/01/31 12:25:20;;;;;;;6.15;1.60;;;;;;;;;;5030313;28;20089;-69
2022/01/31 12:28:24;;;;;;;2.80;1.67;;;;;;;;;;5030685;28;20495;-69
2022/01/31 12:31:42;;;;;;;6.45;1.25;;;;;;;;;;5033228;28;20030;-71
2022/01/31 12:34:28;;;;;;;5.35;1.55;;;;;;;;;;5010309;28;20030;-72
2022/01/31 12:37:15;;;;;;;3.40;1.67;;;;;;;;;;5034735;28;20026;-72
2022/01/31 12:40:08;;;;;;;5.45;1.42;;;;;;;;;;5033518;28;20025;-73
2022/01/31 12:45:45;;;;;;;5.03;1.67;;;;;;;;;;5035022;28;20112;-70
2022/01/31 12:48:31;;;;;;;8.95;1.70;;;;;;;;;;5036360;28;20156;-70
2022/01/31 12:51:18;;;;;;;7.47;1.63;;;;;;;;;;5040148;28;20049;-72
2022/01/31 12:54:05;;;;;;;6.38;1.60;;;;;;;;;;5035801;28;20359;-70
2022/01/31 12:56:51;;;;;;;5.95;2.00;;;;;;;;;;5038378;28;20072;-69
2022/01/31 12:59:39;;;;;;;10.63;1.60;;;;;;;;;;5033934;28;20030;-68
2022/01/31 13:02:25;;;;;;;4.32;1.35;;;;;;;;;;5035449;28;20074;-71
2022/01/31 13:05:10;;;;;;;5.35;1.95;;;;;;;;;;5033371;28;20025;-66
2022/01/31 13:07:56;;;;;;;6.22;1.80;;;;;;;;;;5033672;28;20021;-67
2022/01/31 13:10:41;;;;;;;3.78;1.45;;;;;;;;;;5033578;28;20018;-67
2022/01/31 13:13:34;;;;;;;6.78;1.80;;;;;;;;;;5033959;28;20033;-70
2022/01/31 13:16:21;;;;;;;9.23;4.10;;;;;;;;;;5033587;28;20358;-67
2022/01/31 13:19:24;;;;;;;4.15;1.42;;;;;;;;;;5033534;28;20035;-66
2022/01/31 13:22:12;;;;;;;4.22;1.40;;;;;;;;;;5033160;28;20029;-67
2022/01/31 13:24:59;;;;;;;5.95;1.55;;;;;;;;;;5032742;28;20045;-67
2022/01/31 13:27:46;;;;;;;4.30;1.38;;;;;;;;;;5037959;28;20377;-68
2022/01/31 13:30:32;;;;;;;7.93;2.85;;;;;;;;;;5035045;28;20443;-68
2022/01/31 13:33:18;;;;;;;6.05;1.65;;;;;;;;;;5040696;28;20026;-68
2022/01/31 13:36:03;;;;;;;6.13;1.58;;;;;;;;;;5033345;28;20381;-68
2022/01/31 13:38:49;;;;;;;4.35;1.80;;;;;;;;;;5033550;28;20120;-68
2022/01/31 13:41:35;;;;;;;4.53;1.90;;;;;;;;;;5033616;28;20374;-66
2022/01/31 13:44:22;;;;;;;7.95;3.15;;;;;;;;;;5033557;28;20021;-75
2022/01/31 13:47:07;;;;;;;3.75;1.30;;;;;;;;;;5032828;28;20070;-67
2022/01/31 13:49:53;;;;;;;9.88;1.65;;;;;;;;;;5034421;28;20026;-66
2022/01/31 13:52:54;;;;;;;6.10;1.95;;;;;;;;;;5033174;28;20372;-66
2022/01/31 13:55:43;;;;;;;6.53;1.70;;;;;;;;;;5032997;28;20494;-68
2022/01/31 13:58:30;;;;;;;3.55;1.30;;;;;;;;;;5034745;28;20366;-68
2022/01/31 14:01:19;;;;;;;4.38;1.65;;;;;;;;;;5034573;28;20082;-67
2022/01/31 14:04:05;;;;;;;5.40;1.35;;;;;;;;;;5039907;28;20025;-71
2022/01/31 14:06:51;;;;;;;5.80;1.20;;;;;;;;;;5034575;28;20485;-69
2022/01/31 14:09:36;;;;;;;4.50;1.15;;;;;;;;;;5032911;28;20064;-70
2022/01/31 14:12:25;;;;;;;4.57;1.40;;;;;;;;;;5034395;28;20028;-72
2022/01/31 14:15:11;;;;;;;5.93;1.75;;;;;;;;;;5032005;28;20056;-74
2022/01/31 14:17:57;;;;;;;4.60;1.75;;;;;;;;;;5032864;28;20083;-72
2022/01/31 14:20:43;;;;;;;3.10;1.25;;;;;;;;;;5033063;28;20082;-68
2022/01/31 14:23:32;;;;;;;5.47;1.63;;;;;;;;;;5032893;28;20487;-69
2022/01/31 14:26:20;;;;;;;3.10;1.37;;;;;;;;;;5049284;28;20110;-70
2022/01/31 14:29:09;;;;;;;6.78;1.50;;;;;;;;;;5052907;28;20271;-69
2022/01/31 14:31:56;;;;;;;4.95;1.48;;;;;;;;;;5052633;28;20016;-70
2022/01/31 14:34:45;;;;;;;3.33;1.20;;;;;;;;;;5054020;28;20033;-71
2022/01/31 14:37:34;;;;;;;4.28;1.52;;;;;;;;;;5044161;28;20052;-68
2022/01/31 14:40:39;;;;;;;4.20;1.17;;;;;;;;;;5051872;28;20391;-67
2022/01/31 14:50:04;;;;;;;4.93;1.27;;;;;;;;;;5019570;28;20025;-66
2022/01/31 14:52:50;;;;;;;5.28;1.40;;;;;;;;;;5052547;28;20563;-67
2022/01/31 14:55:40;;;;;;;5.03;1.40;;;;;;;;;;5053700;28;20052;-71
2022/01/31 14:58:25;;;;;;;10.65;3.45;;;;;;;;;;5052073;28;20021;-70
2022/01/31 15:01:11;;;;;;;4.75;1.50;;;;;;;;;;5052214;28;20037;-67
2022/01/31 15:03:56;;;;;;;5.97;1.70;;;;;;;;;;5052157;28;20029;-65
2022/01/31 15:06:42;;;;;;;3.50;1.55;;;;;;;;;;5054534;28;20036;-67
2022/01/31 15:09:27;;;;;;;5.22;1.70;;;;;;;;;;5042901;28;20025;-66
2022/01/31 15:12:13;;;;;;;4.70;1.50;;;;;;;;;;5052346;28;20067;-65
2022/01/31 15:14:58;;;;;;;6.22;1.80;;;;;;;;;;5051999;28;20411;-65
2022/01/31 15:17:47;;;;;;;7.22;1.60;;;;;;;;;;5052372;28;20502;-65
2022/01/31 15:20:34;;;;;;;7.63;1.70;;;;;;;;;;5053249;28;20392;-66
2022/01/31 15:23:22;;;;;;;6.70;3.05;;;;;;;;;;5051512;28;20017;-67
2022/01/31 15:26:11;;;;;;;10.07;2.00;;;;;;;;;;5032054;28;20049;-65
2022/01/31 15:28:57;;;;;;;;;;;;;;;;;;5032033;28;20021;-66
2022/01/31 15:31:42;;;;;;;4.60;1.52;;;;;;;;;;5033285;28;19955;-66
2022/01/31 15:34:28;;;;;;;7.53;1.98;;;;;;;;;;5031745;28;20026;-68
2022/01/31 15:37:14;;;;;;;8.98;2.17;;;;;;;;;;5033268;28;20055;-67
2022/01/31 15:39:59;;;;;;;5.97;2.00;;;;;;;;;;5032499;28;20029;-67
2022/01/31 15:42:45;;;;;;;6.53;1.75;;;;;;;;;;5035189;28;20057;-68
2022/01/31 15:45:31;;;;;;;6.38;2.05;;;;;;;;;;5034757;28;20542;-68
2022/01/31 15:48:17;;;;;;;6.30;2.42;;;;;;;;;;5036740;28;20029;-67
2022/01/31 15:51:03;;;;;;;6.10;1.67;;;;;;;;;;5031327;28;20018;-69
2022/01/31 15:53:49;;;;;;;8.32;1.73;;;;;;;;;;5031313;28;20026;-67
2022/01/31 15:56:34;;;;;;;8.35;2.00;;;;;;;;;;5031223;28;20103;-67
2022/01/31 15:59:20;;;;;;;6.40;1.52;;;;;;;;;;5031379;28;20358;-65
2022/01/31 16:02:09;;;;;;;8.18;1.88;;;;;;;;;;5032844;28;20544;-66
2022/01/31 16:04:55;;;;;;;8.70;2.20;;;;;;;;;;5032831;28;20535;-66
2022/01/31 16:07:40;;;;;;;5.30;1.60;;;;;;;;;;5036534;28;20017;-65
2022/01/31 16:10:26;;;;;;;7.35;1.88;;;;;;;;;;5035157;28;20076;-64
2022/01/31 16:13:13;;;;;;;11.48;2.33;;;;;;;;;;5034939;28;20021;-68
2022/01/31 16:15:58;;;;;;;9.60;2.35;;;;;;;;;;5035912;28;20076;-68
2022/01/31 16:18:44;;;;;;;6.03;2.25;;;;;;;;;;5038403;28;20070;-69
2022/01/31 16:21:29;;;;;;;9.57;2.35;;;;;;;;;;5036439;28;20473;-69
2022/01/31 16:24:15;;;;;;;7.70;1.65;;;;;;;;;;5035148;28;20017;-69
2022/01/31 16:27:00;;;;;;;8.77;2.10;;;;;;;;;;5055121;28;20033;-68
2022/01/31 16:29:50;;;;;;;8.95;2.47;;;;;;;;;;5040506;28;20036;-69
2022/01/31 16:32:36;;;;;;;10.18;2.83;;;;;;;;;;5056286;28;20025;-67
2022/01/31 16:35:22;;;;;;;6.78;1.60;;;;;;;;;;5054497;28;20047;-67
2022/01/31 16:38:08;;;;;;;11.98;2.38;;;;;;;;;;5040613;28;20013;-68
2022/01/31 16:40:53;;;;;;;9.32;2.78;;;;;;;;;;5041410;28;20036;-68
2022/01/31 16:43:39;;;;;;;11.48;1.77;;;;;;;;;;5054686;28;20038;-67
2022/01/31 16:46:25;;;;;;;9.90;2.78;;;;;;;;;;5054725;28;20411;-65
2022/01/31 16:49:10;;;;;;;6.55;2.40;;;;;;;;;;5053861;28;20439;-69
2022/01/31 16:51:56;;;;;;;7.88;2.03;;;;;;;;;;5057434;28;20076;-69
2022/01/31 16:54:42;;;;;;;5.10;2.47;;;;;;;;;;5057201;28;20461;-70
2022/01/31 16:57:30;;;;;;;8.15;1.65;;;;;;;;;;5053918;28;20018;-69
2022/01/31 17:00:16;;;;;;;10.57;2.85;;;;;;;;;;5040459;28;20472;-69
2022/01/31 17:03:03;;;;;;;7.65;2.88;;;;;;;;;;5053946;28;20052;-68
2022/01/31 17:05:51;;;;;;;6.22;1.42;;;;;;;;;;5053825;28;20051;-64
2022/01/31 17:08:37;;;;;;;8.25;2.35;;;;;;;;;;5039355;28;20101;-71
2022/01/31 17:11:22;;;;;;;4.70;1.77;;;;;;;;;;5053566;28;20106;-71